Date,TemperatureHighF,TemperatureAvgF,TemperatureLowF,DewpointHighF,DewpointAvgF,DewpointLowF,HumidityHigh,HumidityAvg,HumidityLow,PressureMaxIn,PressureMinIn,WindSpeedMaxMPH,WindSpeedAvgMPH,GustSpeedMaxMPH,PrecipitationSumIn
2013-1-1,63.5,44.5,35.2,43.5,34.8,30.4,91,71,38,29.73,29.59,5,0,5,0.00
2013-1-2,68.4,46.8,35.2,42.3,32.9,26.6,78,61,31,29.69,29.50,0,0,0,0.00
2013-1-3,66.2,46.4,35.8,44.2,34.7,26.6,80,65,42,29.70,29.59,1,0,1,0.00
2013-1-4,68.7,48.6,38.8,53.4,36.5,29.8,97,66,33,29.73,29.38,5,0,5,0.00
2013-1-5,55.9,48.2,42.3,51.1,45.5,39.2,97,91,77,29.73,29.54,2,0,2,0.00
2013-1-6,52.0,45.8,40.3,49.6,43.7,38.7,98,92,80,29.65,29.52,0,0,0,0.00
2013-1-7,59.7,47.3,39.6,50.5,43.5,38.3,98,88,66,29.73,29.60,0,0,0,0.00
2013-1-8,67.3,51.2,42.6,54.0,45.1,40.1,95,81,54,29.68,29.48,1,0,1,0.00
2013-1-9,59.0,47.9,40.3,48.9,42.5,36.9,89,82,66,29.62,29.46,5,0,5,0.00
2013-1-10,88.2,43.4,37.8,40.6,35.7,32.4,92,76,17,29.67,29.19,13,1,13,0.00
2013-1-11,72.1,44.0,35.8,62.6,34.7,29.5,84,71,41,29.73,29.40,0,0,0,0.00
2013-1-12,55.8,42.3,32.5,37.2,32.1,25.5,85,68,44,29.70,29.53,1,0,1,0.00
2013-1-13,59.7,40.1,29.5,32.5,24.3,19.6,79,56,24,29.73,29.57,4,0,4,0.00
2013-1-14,58.5,42.6,34.7,28.9,17.4,9.3,56,37,21,29.86,29.66,0,0,0,0.00
2013-1-15,59.4,42.0,32.9,32.4,25.2,20.7,72,54,25,29.95,29.37,0,0,0,0.00
2013-1-16,66.6,46.6,34.9,39.4,31.7,25.9,74,59,30,29.90,29.66,0,0,0,0.00
2013-1-17,80.1,52.0,39.2,44.8,33.8,30.4,72,56,17,29.72,29.56,0,0,0,0.00
2013-1-18,75.2,56.0,47.7,36.0,34.2,26.1,61,46,19,29.62,29.55,0,0,0,0.00
2013-1-19,77.4,56.3,44.6,46.9,34.3,27.1,62,47,19,29.68,29.54,0,0,0,0.00
2013-1-20,80.6,56.8,44.1,43.2,32.9,26.8,62,44,17,29.67,29.39,0,0,0,0.00
2013-1-21,81.3,56.7,43.3,42.1,32.0,23.4,61,43,12,29.64,29.48,0,0,0,0.00
2013-1-22,72.5,56.1,45.1,42.1,31.3,25.7,50,40,19,29.57,29.47,0,0,0,0.00
2013-1-23,73.9,53.4,50.4,59.4,41.5,30.4,97,66,40,29.54,29.41,2,0,2,0.00
2013-1-24,55.9,52.8,50.2,54.3,51.5,48.2,97,95,92,29.65,29.48,4,0,4,0.00
2013-1-25,73.4,58.7,52.3,66.7,55.1,51.3,99,89,60,29.65,29.47,3,0,3,0.00
2013-1-26,65.3,51.7,43.0,53.4,45.4,38.8,99,81,45,29.57,29.44,1,0,1,0.00
2013-1-27,62.8,47.8,41.2,43.2,39.1,34.9,92,74,39,29.65,29.53,0,0,0,0.00
2013-1-28,67.5,49.2,39.7,45.1,40.5,37.0,92,74,39,29.74,29.62,0,0,0,0.00
2013-1-29,64.8,49.4,41.9,47.7,42.4,39.2,92,78,50,29.79,29.65,1,0,1,0.00
2013-1-30,69.6,51.9,43.2,48.0,43.3,39.2,96,75,41,29.80,29.64,4,0,4,0.00
2013-1-31,72.5,53.3,40.6,48.7,42.2,36.3,87,69,36,29.75,29.59,3,0,3,0.00
2013-2-1,73.9,52.2,43.5,52.5,44.6,39.7,97,78,39,29.73,29.58,4,0,4,0.00
2013-2-2,125.1,49.5,42.1,52.2,46.0,41.5,99,89,64,29.78,29.68,7,1,7,0.00
2013-2-3,64.4,49.2,41.9,49.6,44.7,40.6,98,86,54,29.76,29.59,10,0,10,0.00
2013-2-4,68.7,49.1,37.0,53.1,44.2,35.8,99,85,54,29.69,29.52,10,0,10,0.00
2013-2-5,63.0,48.8,42.8,49.5,44.2,41.5,98,85,58,29.66,29.56,0,0,0,0.00
2013-2-6,64.6,48.1,36.3,48.6,41.7,34.2,98,80,51,29.72,29.59,0,0,0,0.00
2013-2-7,61.2,45.0,36.0,48.9,39.4,33.1,95,82,47,29.69,29.52,0,0,0,0.00
2013-2-8,60.3,44.3,38.5,45.1,38.7,35.2,98,83,48,29.54,29.44,1,0,1,0.00
2013-2-9,62.1,45.2,35.4,45.1,35.4,26.8,90,70,40,29.62,29.34,0,0,0,0.00
2013-2-10,67.3,45.9,33.3,46.6,36.5,28.4,84,72,33,29.65,29.49,0,0,0,0.00
2013-2-11,64.4,47.2,35.6,43.7,37.2,30.4,87,70,44,29.75,29.58,1,0,1,0.00
2013-2-12,63.9,48.0,37.4,44.1,38.1,33.3,94,71,38,29.87,29.75,0,0,0,0.00
2013-2-13,68.0,49.3,37.8,49.1,40.0,35.4,94,73,39,29.85,29.68,0,0,0,0.00
2013-2-14,78.1,55.5,39.7,49.8,40.8,36.1,89,62,30,29.73,29.57,0,0,2,0.00
2013-2-15,82.6,60.7,45.9,49.6,39.1,29.5,72,51,16,29.70,29.56,0,0,0,0.00
2013-2-16,79.9,60.4,46.0,49.6,39.3,34.3,84,50,20,29.66,29.41,2,0,2,0.00
2013-2-17,66.9,49.5,39.9,49.5,43.6,38.7,98,82,53,29.51,29.36,2,0,2,0.00
2013-2-18,52.5,45.3,39.6,48.0,41.1,38.1,99,86,68,29.52,29.44,2,0,2,0.00
2013-2-19,51.6,42.8,36.5,46.6,39.6,33.4,97,89,74,29.49,29.21,0,0,0,0.00
2013-2-20,66.2,46.7,34.3,43.2,36.5,30.4,94,71,32,29.53,29.30,5,0,5,0.00
2013-2-21,68.5,49.5,39.6,39.7,36.7,30.7,92,66,27,29.64,29.47,0,0,0,0.00
2013-2-22,69.3,49.2,35.8,49.1,39.0,-46.5,86,70,40,29.71,29.42,1,0,1,0.00
2013-2-23,67.8,51.7,44.1,43.5,39.0,32.0,93,65,33,29.70,29.45,1,0,1,0.00
2013-2-24,71.8,52.8,41.4,32.2,25.9,20.8,67,39,16,29.72,29.51,1,0,1,0.00
2013-2-25,67.6,49.3,36.1,46.8,37.3,27.9,87,65,37,29.76,29.54,2,0,2,0.00
2013-2-26,76.5,53.1,35.8,46.8,33.2,21.7,93,56,15,29.67,29.49,4,0,4,0.00
2013-2-27,74.8,54.3,40.3,47.1,36.8,27.7,86,56,18,29.81,29.63,1,0,2,0.00
2013-2-28,75.6,55.3,44.1,52.7,46.5,39.7,92,74,44,29.90,29.55,1,0,1,0.00
2013-3-1,81.7,60.3,46.2,55.8,49.4,45.3,98,72,36,29.85,29.59,4,0,4,0.00
2013-3-2,74.1,58.5,50.0,52.2,47.5,42.8,95,69,36,29.66,29.50,1,0,1,0.00
2013-3-3,66.0,53.0,46.4,54.0,48.8,36.9,98,86,63,29.60,29.26,0,0,0,0.00
2013-3-4,64.9,51.3,44.8,49.1,45.0,33.8,94,80,55,29.65,29.49,0,0,0,0.00
2013-3-5,58.6,48.2,43.5,44.4,43.1,41.0,98,83,64,29.63,29.41,1,0,1,0.00
2013-3-6,57.6,48.8,40.6,49.5,45.0,39.6,99,87,65,29.58,29.41,0,0,0,0.00
2013-3-7,59.9,46.3,38.1,47.8,42.0,37.6,99,87,51,29.50,29.32,0,0,0,0.00
2013-3-8,64.9,49.7,41.5,52.0,42.9,36.7,99,80,47,29.57,29.33,0,0,1,0.00
2013-3-9,75.0,54.7,45.0,48.4,41.4,34.5,85,65,25,29.77,29.35,0,0,0,0.00
2013-3-10,69.8,51.7,39.2,50.9,42.9,27.0,93,75,41,29.84,29.51,0,0,0,0.00
2013-3-11,78.3,54.9,42.1,49.6,41.1,36.3,91,66,25,29.74,29.49,0,0,0,0.00
2013-3-12,81.9,56.8,41.2,52.9,45.8,39.6,96,72,28,29.63,29.40,0,0,0,0.00
2013-3-13,85.3,60.3,47.1,57.7,49.6,42.4,95,73,24,29.62,29.40,1,0,1,0.00
2013-3-14,72.1,56.8,44.1,56.8,48.6,34.3,99,77,40,29.72,29.49,1,0,1,0.00
2013-3-15,76.8,57.4,45.9,51.3,45.1,36.7,90,66,40,29.60,29.47,0,0,0,0.00
2013-3-16,78.3,56.5,42.8,55.9,45.0,27.3,99,72,19,29.59,29.42,1,0,1,0.00
2013-3-17,75.4,55.0,44.1,50.2,43.8,39.7,92,69,31,29.62,29.44,1,0,4,0.00
2013-3-18,66.7,51.7,40.3,51.8,44.7,38.1,98,78,56,29.61,29.47,1,0,1,0.00
2013-3-19,76.6,55.9,45.9,50.5,45.3,37.4,96,71,34,29.59,29.50,1,0,1,0.00
2013-3-20,65.1,56.1,51.1,55.8,52.2,34.3,99,88,60,29.65,29.51,0,0,0,0.00
2013-3-21,74.8,55.7,42.6,50.0,42.3,36.5,90,66,26,29.59,29.26,0,0,0,0.00
2013-3-22,77.4,56.9,41.4,41.7,30.3,18.5,94,46,13,29.62,29.26,0,0,0,0.00
2013-3-23,73.6,55.4,40.8,45.7,37.3,28.6,83,54,26,29.58,29.36,0,0,0,0.00
2013-3-24,75.6,53.7,39.0,50.4,42.4,35.2,93,69,30,29.56,29.29,1,0,1,0.00
2013-3-25,70.2,52.6,41.7,51.6,44.3,40.5,96,77,40,29.47,29.30,3,0,3,0.00
2013-3-26,74.8,54.2,43.2,52.2,45.6,40.3,94,75,43,29.45,29.26,2,0,2,0.00
2013-3-27,69.1,54.5,46.4,54.5,50.3,33.6,98,87,57,29.71,29.39,0,0,0,0.00
2013-3-28,69.1,57.4,50.7,61.0,53.5,13.1,99,88,61,29.54,29.36,2,0,2,0.00
2013-3-29,72.5,56.9,46.4,62.4,51.1,46.2,99,83,48,29.55,29.44,0,0,0,0.00
2013-3-30,69.8,55.5,50.4,57.9,52.0,49.8,99,89,55,29.58,29.39,0,0,0,0.00
2013-3-31,66.7,56.3,42.3,60.4,53.2,39.2,99,90,66,29.69,29.41,1,0,1,0.00
2013-4-1,68.9,57.2,49.3,58.3,51.8,47.1,99,84,53,29.62,29.46,0,0,0,0.00
2013-4-2,75.6,57.5,44.1,58.1,50.1,43.5,99,80,44,29.66,29.39,0,0,0,0.00
2013-4-3,78.3,56.7,45.1,57.2,50.1,42.3,99,82,41,29.60,29.36,0,0,0,0.00
2013-4-4,61.0,53.5,46.4,58.3,52.7,40.3,99,97,84,29.60,29.49,0,0,0,0.00
2013-4-5,75.0,59.2,50.5,59.7,53.0,37.4,99,82,51,29.62,29.47,4,0,4,0.00
2013-4-6,75.7,56.8,47.1,59.7,51.5,35.6,99,84,47,29.64,29.49,0,0,0,0.00
2013-4-7,75.2,56.9,46.9,59.5,50.3,44.4,99,81,44,29.62,29.33,0,0,0,0.00
2013-4-8,73.2,55.2,45.9,50.0,39.9,30.6,94,62,23,29.54,29.27,1,0,1,0.00
2013-4-9,80.8,61.9,45.3,40.6,36.1,30.4,82,43,18,29.52,29.34,1,0,2,0.00
2013-4-10,91.8,66.1,49.6,55.0,46.0,24.8,83,52,25,29.87,29.37,1,0,1,0.00
2013-4-11,78.8,57.9,46.8,54.5,48.7,43.5,95,74,39,29.51,29.22,1,0,1,0.00
2013-4-12,75.7,54.6,41.2,54.3,46.5,40.5,99,78,38,29.38,28.83,4,0,4,0.00
2013-4-13,74.3,53.7,43.2,53.2,44.5,36.9,97,75,33,29.40,28.76,2,0,2,0.00
2013-4-14,77.4,54.1,41.2,48.9,42.1,37.0,93,69,25,29.41,28.78,0,0,0,0.00
2013-4-15,64.8,51.8,43.0,47.3,40.1,33.4,95,68,37,29.46,28.86,5,0,5,0.00
2013-4-16,75.0,54.0,36.9,37.6,33.9,27.0,89,54,19,29.62,28.97,1,0,1,0.00
2013-4-17,76.6,60.3,48.2,33.4,29.4,23.2,49,33,16,29.72,29.14,0,0,0,0.00
2013-4-18,81.0,64.0,43.2,51.3,43.5,33.3,81,51,23,29.73,29.28,3,0,3,0.00
2013-4-19,81.7,59.3,46.6,50.4,44.1,37.4,90,61,28,29.71,29.19,4,0,4,0.00
2013-4-20,86.5,62.2,47.7,53.4,48.0,43.9,92,66,24,29.56,29.05,2,0,2,0.00
2013-4-21,89.8,64.8,47.7,55.2,47.9,42.6,87,59,21,29.49,29.01,1,0,1,0.00
2013-4-22,74.3,60.0,49.8,54.7,48.0,41.9,95,66,49,29.43,29.00,1,0,1,0.00
2013-4-23,65.5,54.4,47.3,53.6,50.0,47.1,99,86,64,29.43,28.99,8,0,8,0.00
2013-4-24,65.3,53.4,48.0,53.1,49.0,44.6,98,86,61,29.45,29.05,4,0,4,0.00
2013-4-25,72.3,57.4,45.5,55.2,49.0,44.6,99,77,44,29.59,29.19,0,0,0,0.00
2013-4-26,77.2,57.3,46.2,56.1,49.6,45.0,99,79,45,29.68,29.29,0,0,0,0.00
2013-4-27,78.1,57.4,44.6,56.8,49.2,43.9,99,78,40,29.68,29.22,0,0,0,0.00
2013-4-28,77.4,58.1,46.8,57.2,50.5,46.6,99,79,44,29.54,29.01,0,0,0,0.00
2013-4-29,86.0,63.9,52.0,59.0,52.6,20.5,93,70,37,29.53,28.87,0,0,0,0.00
2013-4-30,125.2,59.9,48.4,56.7,50.8,46.9,97,76,39,29.32,28.91,0,0,0,0.00
2013-5-1,72.0,57.8,48.7,55.6,49.8,41.9,97,77,49,29.55,29.20,0,0,0,0.00
2013-5-2,88.0,67.7,52.0,56.3,50.1,39.4,90,58,24,29.60,29.26,0,0,0,0.00
2013-5-3,96.3,69.4,52.5,51.4,42.6,29.8,89,46,10,29.54,28.97,1,0,1,0.00
2013-5-4,70.3,56.6,51.8,54.7,48.0,39.6,89,74,53,29.58,29.10,2,0,2,0.00
2013-5-5,69.1,57.4,52.2,53.4,50.1,47.3,97,77,52,29.58,29.11,0,0,0,0.00
2013-5-6,69.6,58.9,54.0,55.0,51.8,-46.5,88,78,57,29.45,29.23,0,0,0,0.00
2013-5-7,73.8,61.5,50.7,55.0,50.6,20.5,91,70,42,29.52,29.18,0,0,0,0.00
2013-5-8,78.3,59.7,47.8,56.3,49.5,43.2,99,74,31,29.59,29.25,1,0,1,0.00
2013-5-9,76.8,58.9,48.9,55.6,50.4,46.4,93,76,46,29.64,29.29,0,0,0,0.00
2013-5-10,79.7,60.2,47.8,56.5,51.4,23.4,97,76,42,29.66,29.29,1,0,1,0.00
2013-5-11,88.3,62.8,50.2,59.9,53.2,39.6,99,76,31,29.61,29.23,0,0,0,0.00
2013-5-12,85.8,64.2,51.8,59.2,53.5,47.8,98,72,37,29.59,29.20,0,0,0,0.00
2013-5-13,83.8,63.4,49.5,57.9,51.3,43.5,94,69,32,29.55,29.11,0,0,0,0.00
2013-5-14,74.8,59.9,50.7,55.6,51.5,39.4,95,76,49,29.51,29.18,0,0,0,0.00
2013-5-15,81.5,58.4,45.3,53.4,46.6,43.0,94,69,28,29.55,29.29,0,0,0,0.00
2013-5-16,79.2,59.7,50.4,60.8,52.2,42.3,95,78,47,29.53,29.21,0,0,0,0.00
2013-5-17,82.6,60.6,46.8,53.8,46.3,34.7,95,65,19,29.56,29.19,0,0,0,0.00
2013-5-18,81.7,60.7,45.7,52.9,47.8,42.8,93,66,27,29.63,29.29,1,0,1,0.00
2013-5-19,93.6,63.4,46.8,56.5,49.7,35.1,96,68,14,29.60,29.11,0,0,0,0.00
2013-5-20,95.0,68.9,51.4,55.9,46.0,32.9,86,52,14,29.47,29.07,4,0,4,0.00
2013-5-21,80.8,59.5,48.2,55.0,45.3,31.8,95,66,17,29.48,29.10,11,1,11,0.00
2013-5-22,77.0,56.1,42.4,41.2,35.4,22.1,81,53,16,29.50,29.12,9,2,9,0.00
2013-5-23,75.6,57.0,45.0,46.9,41.1,37.0,85,59,29,29.49,29.19,6,1,6,0.00
2013-5-24,80.4,56.6,41.4,50.5,41.3,25.0,93,64,15,29.56,29.15,8,1,8,0.00
2013-5-25,79.5,57.0,43.7,51.4,45.4,40.5,94,69,29,29.54,29.19,4,0,4,0.00
2013-5-26,82.0,61.3,48.9,56.7,50.1,46.0,93,71,32,29.60,29.23,1,0,1,0.00
2013-5-27,80.4,59.7,50.0,57.4,52.3,37.0,93,77,53,29.72,29.42,1,0,1,0.00
2013-5-28,84.9,65.4,52.7,60.8,53.9,46.0,97,71,33,29.48,29.05,0,0,0,0.00
2013-5-29,85.3,63.1,50.5,58.5,50.3,43.3,92,67,29,29.71,29.03,12,0,12,0.00
2013-5-30,81.0,60.5,45.5,52.3,46.3,34.5,95,65,21,29.46,29.13,1,0,1,0.00
2013-5-31,88.3,63.0,47.1,56.3,48.7,42.6,88,64,30,29.48,29.08,2,0,2,0.00
2013-6-1,87.4,64.3,51.4,57.0,51.3,46.4,92,67,30,29.40,28.99,3,0,3,0.00
2013-6-2,73.0,59.2,50.0,55.9,51.5,47.8,97,78,50,29.26,28.94,3,0,3,0.00
2013-6-3,68.4,56.9,51.4,53.8,51.0,37.9,99,82,57,29.47,29.08,2,0,2,0.00
2013-6-4,69.1,57.1,49.3,56.1,51.4,31.1,97,82,60,29.54,29.17,0,0,0,0.00
2013-6-5,72.0,57.8,49.8,56.1,51.0,47.7,98,80,52,29.47,29.16,0,0,0,0.00
2013-6-6,72.5,59.1,52.0,55.8,52.0,49.6,94,79,53,29.44,29.10,0,0,0,0.00
2013-6-7,77.0,59.6,50.7,58.5,53.0,49.5,99,81,50,29.38,28.97,0,0,0,0.00
2013-6-8,68.2,57.5,50.5,58.1,53.8,50.2,99,88,67,29.34,29.22,0,0,0,0.00
2013-6-9,63.5,58.3,55.0,60.6,55.2,37.0,99,90,80,29.82,29.33,0,0,0,0.00
2013-6-10,71.4,61.1,54.7,55.8,52.7,50.5,87,75,55,29.42,29.30,0,0,0,0.00
2013-6-11,80.1,63.5,53.2,59.9,53.8,39.4,91,73,42,29.54,29.14,0,0,0,0.00
2013-6-12,84.0,62.2,48.6,57.9,49.3,38.5,99,68,23,29.48,29.08,1,0,1,0.00
2013-6-13,86.4,62.4,45.7,53.8,48.0,37.2,90,65,20,29.56,29.16,0,0,0,0.00
2013-6-14,94.5,66.8,48.4,55.6,48.8,38.5,90,61,15,29.46,28.94,2,0,2,0.00
2013-6-15,74.3,58.1,49.8,54.9,51.2,47.8,98,80,48,29.48,29.14,1,0,1,0.00
2013-6-16,87.6,64.1,51.1,56.5,51.0,45.1,94,68,26,29.54,29.19,11,0,11,0.00
2013-6-17,89.8,65.3,50.5,58.6,51.9,46.6,90,67,27,29.56,29.16,1,0,1,0.00
2013-6-18,80.1,63.1,52.3,52.2,48.8,44.1,90,64,29,29.51,29.15,0,0,0,0.00
2013-6-19,84.6,64.7,46.0,52.7,47.2,34.2,85,57,26,29.65,29.13,0,0,0,0.00
2013-6-20,87.6,63.2,47.1,52.5,46.0,39.0,92,59,20,29.56,29.08,2,0,2,0.00
2013-6-21,82.2,62.7,48.0,54.5,49.6,34.7,92,67,33,29.71,29.09,4,0,4,0.00
2013-6-22,84.7,63.8,47.7,56.7,51.1,39.4,96,68,33,29.54,29.04,2,0,2,0.00
2013-6-23,73.8,60.3,53.4,62.6,56.0,35.2,96,86,66,29.67,29.20,0,0,0,0.00
2013-6-24,61.0,59.1,58.3,60.4,58.6,41.4,99,98,96,29.84,29.28,0,0,0,0.00
2013-6-25,66.9,60.8,57.0,66.4,60.2,56.7,99,98,96,29.48,29.39,0,0,0,0.00
2013-6-26,93.2,71.4,59.5,71.1,62.5,56.3,99,78,38,29.50,29.08,0,0,0,0.00
2013-6-27,94.8,72.2,59.4,66.9,59.9,55.6,96,70,33,29.50,29.15,0,0,0,0.00
2013-6-28,95.5,73.4,59.5,62.8,57.4,42.3,87,61,30,29.53,29.03,0,0,0,0.00
2013-6-29,91.0,70.2,57.6,62.2,56.1,52.2,90,64,30,29.36,29.21,0,0,0,0.00
2013-6-30,88.3,67.6,42.6,62.6,57.1,40.8,96,73,36,29.51,28.96,0,0,0,0.00
2013-7-1,85.5,68.0,55.0,63.5,57.2,52.7,95,71,42,29.32,29.03,0,0,0,0.00
2013-7-2,84.9,67.8,55.4,63.7,57.5,53.6,98,73,42,29.39,29.13,2,0,2,0.00
2013-7-3,84.4,66.1,56.3,62.4,58.1,46.6,99,78,45,29.73,28.97,4,0,4,0.00
2013-7-4,77.5,64.6,56.8,64.2,58.2,39.4,99,81,56,29.60,28.96,0,0,0,0.00
2013-7-5,80.1,63.7,54.3,58.6,55.0,50.2,98,77,44,29.30,28.82,1,0,1,0.00
2013-7-6,72.3,59.5,54.0,57.7,53.4,50.7,97,82,57,29.30,28.88,0,0,0,0.00
2013-7-7,70.7,59.4,53.8,56.8,53.1,48.6,93,81,59,29.54,28.93,0,0,0,0.00
2013-7-8,77.2,61.3,53.2,57.2,53.8,47.7,97,79,48,29.53,29.02,0,0,0,0.00
2013-7-9,90.5,64.4,50.2,62.1,55.0,34.9,99,77,30,29.54,29.01,1,0,1,0.00
2013-7-10,77.5,62.2,54.3,59.7,55.5,52.9,99,81,51,29.46,29.04,0,0,0,0.00
2013-7-11,77.4,60.8,50.5,57.9,53.8,45.0,99,80,48,29.62,28.98,0,0,0,0.00
2013-7-12,79.3,61.3,52.0,59.0,53.2,42.8,98,78,43,29.71,28.97,0,0,0,0.00
2013-7-13,80.2,61.3,50.5,59.0,53.7,46.2,99,79,45,29.45,28.99,0,0,0,0.00
2013-7-14,81.7,61.5,52.2,59.0,53.9,51.3,98,80,40,29.48,28.98,0,0,0,0.00
2013-7-15,74.1,59.9,52.5,57.6,53.7,45.7,98,82,54,29.48,28.94,0,0,0,0.00
2013-7-16,77.4,61.9,54.3,57.9,54.6,52.3,96,79,49,29.47,29.02,0,0,0,0.00
2013-7-17,82.8,64.5,52.3,59.7,54.8,51.1,98,75,42,29.55,29.09,0,0,0,0.00
2013-7-18,80.2,61.5,49.3,59.4,54.3,48.4,99,80,45,29.53,29.00,0,0,0,0.00
2013-7-19,78.6,61.2,52.9,60.1,54.5,32.0,99,81,49,29.43,28.92,0,0,0,0.00
2013-7-20,69.6,58.5,52.9,58.8,53.7,51.1,99,86,61,29.35,28.91,0,0,0,0.00
2013-7-21,79.7,62.4,52.5,59.4,54.9,51.6,98,79,49,29.37,28.94,0,0,0,0.00
2013-7-22,74.1,63.7,55.2,61.9,57.7,52.3,96,82,63,29.42,29.23,0,0,0,0.00
2013-7-23,81.5,65.2,55.6,62.8,57.5,53.2,96,78,46,29.47,28.91,0,0,0,0.00
2013-7-24,81.5,63.7,54.1,61.5,56.2,52.7,99,80,46,29.45,28.97,0,0,0,0.00
2013-7-25,77.0,62.2,53.6,60.1,55.4,51.8,99,81,52,29.49,29.05,0,0,0,0.00
2013-7-26,75.9,61.8,54.7,60.3,55.7,49.1,98,82,54,29.57,29.10,0,0,0,0.00
2013-7-27,73.0,60.6,54.7,60.3,55.5,52.5,99,85,59,29.50,28.97,0,0,0,0.00
2013-7-28,69.4,59.0,53.8,59.0,54.5,51.3,99,86,63,29.37,28.95,0,0,0,0.00
2013-7-29,70.3,59.6,54.3,58.3,53.4,-46.5,90,81,60,29.50,29.07,0,0,0,0.00
2013-7-30,72.3,61.2,54.3,57.2,53.5,50.4,89,77,55,29.57,29.16,1,0,1,0.00
2013-7-31,78.1,62.2,53.4,58.5,54.1,51.3,93,77,47,29.57,29.08,0,0,0,0.00
2013-8-1,85.5,63.2,50.0,58.6,52.8,48.2,97,73,39,29.56,29.00,0,0,0,0.00
2013-8-2,80.1,60.1,47.5,58.6,52.1,46.0,98,78,42,29.47,28.96,1,0,1,0.00
2013-8-3,71.6,58.6,52.9,57.6,53.7,51.8,98,85,59,29.48,29.03,0,0,0,0.00
2013-8-4,84.7,59.6,53.1,59.2,53.9,49.6,98,83,38,29.49,29.06,0,0,0,0.00
2013-8-5,81.5,61.2,52.2,60.1,53.7,50.2,98,79,42,29.51,28.99,0,0,0,0.00
2013-8-6,76.6,60.7,53.2,60.1,54.5,44.2,98,82,51,29.52,29.07,0,0,0,0.00
2013-8-7,78.4,63.6,55.4,58.8,55.0,52.5,94,76,47,29.57,29.07,0,0,0,0.00
2013-8-8,75.2,62.2,55.8,59.9,55.7,51.3,97,81,53,29.53,28.98,0,0,0,0.00
2013-8-9,79.5,63.7,54.3,59.5,55.0,46.9,93,76,49,29.48,29.03,0,0,0,0.00
2013-8-10,86.4,65.4,56.1,61.3,57.0,53.8,95,78,42,29.50,29.03,1,0,1,0.00
2013-8-11,82.4,63.5,54.7,61.7,56.3,53.2,97,80,43,29.49,28.99,0,0,0,0.00
2013-8-12,82.2,63.0,53.2,61.3,55.9,52.7,98,81,45,29.57,28.97,0,0,0,0.00
2013-8-13,83.7,62.6,49.6,61.0,54.4,49.5,99,79,38,29.47,28.92,0,0,0,0.00
2013-8-14,86.4,64.7,49.5,61.2,55.3,49.3,99,76,37,29.47,28.89,1,0,1,0.00
2013-8-15,94.8,70.4,58.1,65.3,60.0,56.8,97,75,34,29.42,28.85,0,0,0,0.00
2013-8-16,94.8,69.4,56.7,66.7,60.5,55.0,98,78,37,29.43,28.88,0,0,2,0.00
2013-8-17,80.4,63.9,53.4,61.3,56.7,51.8,97,80,49,29.46,28.91,0,0,2,0.00
2013-8-18,81.9,63.7,54.0,63.0,57.6,43.2,99,83,49,29.37,28.90,0,0,0,0.00
2013-8-19,78.1,62.5,54.1,63.9,56.6,53.2,99,83,51,29.39,29.09,0,0,0,0.00
2013-8-20,73.6,60.8,55.0,60.3,56.0,52.3,99,86,60,29.41,28.93,0,0,0,0.00
2013-8-21,79.9,64.4,54.7,58.3,55.1,52.9,95,75,42,29.42,28.93,0,0,0,0.08
2013-8-22,82.4,70.2,54.9,59.4,55.3,52.9,93,62,39,29.42,28.92,0,0,0,0.00
2013-8-23,82.9,64.1,52.5,60.3,55.3,51.1,98,77,43,29.39,28.86,1,0,1,0.00
2013-8-24,85.3,64.8,50.2,62.1,56.0,49.8,99,78,42,29.37,28.87,0,0,0,0.00
2013-8-25,84.0,67.1,57.9,64.8,59.2,55.6,97,79,47,29.39,28.96,0,0,0,0.00
2013-8-26,89.4,69.5,57.9,62.4,57.0,46.0,94,69,38,29.45,28.89,0,0,0,0.00
2013-8-27,86.0,64.7,53.1,58.8,53.8,47.3,92,71,36,29.41,28.86,0,0,0,0.00
2013-8-28,92.5,65.2,54.9,62.8,57.5,44.2,97,80,34,29.37,29.06,0,-4,0,0.00
2013-8-29,89.8,67.7,57.9,64.8,59.8,56.3,98,79,39,29.48,28.95,0,0,0,0.00
2013-8-30,95.7,71.2,58.6,65.1,59.7,56.7,94,72,33,29.48,28.92,0,0,0,0.00
2013-8-31,90.0,68.7,55.9,62.2,55.3,50.5,93,67,29,29.42,28.96,0,0,0,0.00
2013-9-1,92.5,69.8,57.6,63.7,57.9,54.5,96,71,30,29.39,29.13,1,0,1,0.00
2013-9-2,89.4,71.1,61.3,64.9,59.9,52.0,89,70,39,29.39,29.22,0,0,0,0.00
2013-9-3,90.5,70.3,56.8,61.2,55.3,51.3,89,64,29,29.44,28.99,0,0,0,0.00
2013-9-4,93.2,69.1,56.1,60.1,56.1,52.3,94,68,29,29.48,28.99,0,0,0,0.00
2013-9-5,91.2,67.8,33.3,60.6,55.0,-46.5,96,69,2,29.47,29.02,0,0,0,0.00
2013-9-6,98.2,70.3,52.0,60.1,53.6,42.6,92,63,22,29.49,28.84,0,0,0,0.00
2013-9-7,82.8,67.5,57.6,59.7,54.2,48.0,95,64,40,29.37,28.93,1,0,1,0.00
2013-9-8,80.1,63.1,55.4,62.1,57.5,54.3,99,84,51,29.34,28.88,0,0,0,0.00
2013-9-9,79.3,63.1,53.8,64.2,56.9,52.9,99,83,51,29.27,28.88,0,0,6,0.00
2013-9-10,62.4,59.1,55.9,60.3,57.9,55.6,99,96,89,29.39,29.21,0,0,0,0.00
2013-9-11,75.6,63.1,55.8,60.8,57.5,51.3,95,83,57,29.49,29.11,0,0,0,0.00
2013-9-12,84.2,65.9,55.6,64.2,58.6,51.8,98,81,45,29.44,28.99,0,0,0,0.00
2013-9-13,87.4,63.0,52.7,62.6,56.4,41.4,99,82,46,29.36,28.85,0,0,0,0.00
2013-9-14,83.5,62.9,51.4,60.6,54.9,51.1,99,79,42,29.31,28.80,0,0,0,0.00
2013-9-15,86.7,64.8,52.0,60.4,55.6,50.7,98,76,40,29.35,28.86,0,0,0,0.00
2013-9-16,88.3,66.8,55.2,63.9,56.7,51.8,99,75,35,29.36,28.85,0,0,0,0.00
2013-9-17,82.2,63.8,53.8,62.1,53.3,49.5,99,73,34,29.38,28.94,0,0,0,0.00
2013-9-18,88.9,64.3,49.6,59.5,51.2,44.4,98,69,25,29.39,28.86,0,0,0,0.00
2013-9-19,98.2,67.6,51.1,55.2,47.1,32.0,83,56,10,29.49,28.77,0,0,0,0.00
2013-9-20,90.7,64.3,52.0,61.5,53.2,41.9,93,69,46,29.42,28.91,0,0,0,0.00
2013-9-21,68.4,59.6,52.7,64.9,58.4,52.0,99,96,78,29.39,29.09,0,0,0,0.00
2013-9-22,79.2,60.9,49.1,63.5,53.9,48.6,99,81,41,29.45,29.07,0,0,0,0.00
2013-9-23,90.5,67.3,51.6,60.4,54.4,49.6,95,68,31,29.47,29.00,0,0,0,0.00
2013-9-24,84.2,65.8,55.4,60.6,53.5,48.7,88,68,33,29.44,28.98,0,0,0,0.00
2013-9-25,75.9,60.5,51.8,48.9,46.4,41.7,84,63,33,29.41,28.88,1,0,1,0.00
2013-9-26,84.4,60.7,45.7,54.1,43.4,34.5,91,61,19,29.42,28.88,0,0,0,0.00
2013-9-27,86.9,70.7,54.3,46.2,37.6,30.2,57,32,16,29.54,29.03,0,0,0,0.00
2013-9-28,91.4,66.1,50.0,49.1,40.4,34.3,73,44,18,29.54,28.99,0,0,0,0.00
2013-9-29,88.3,65.8,52.3,60.4,54.0,48.6,90,70,32,29.56,29.02,2,0,2,0.00
2013-9-30,86.4,66.7,54.9,63.7,58.0,53.6,98,77,43,29.53,29.08,0,0,0,0.00
2013-10-1,78.6,62.3,53.1,56.5,50.0,43.0,92,67,40,29.47,29.06,0,0,0,0.00
2013-10-2,82.9,60.0,48.7,56.3,47.7,38.5,92,68,29,29.47,29.01,0,0,0,0.00
2013-10-3,81.7,61.4,46.0,55.0,37.3,28.8,83,48,16,29.51,29.01,4,0,4,0.00
2013-10-4,90.9,69.8,55.2,40.1,30.5,25.0,50,24,12,29.51,29.08,5,0,5,0.00
2013-10-5,95.2,70.4,54.7,40.6,30.7,21.7,42,26,10,29.62,29.13,6,0,6,0.00
2013-10-6,91.2,69.4,56.1,41.2,31.0,25.5,38,26,10,29.56,29.27,5,0,5,0.00
2013-10-7,86.4,63.2,52.0,52.9,40.4,28.2,92,47,22,29.45,28.99,5,1,5,0.00
2013-10-8,72.0,55.5,46.6,54.9,49.1,42.6,97,81,51,29.38,28.97,2,0,2,0.00
2013-10-9,70.3,55.7,48.0,51.4,48.1,44.1,97,78,47,29.25,28.86,2,0,2,0.18
2013-10-10,63.7,51.8,45.3,52.5,48.2,44.2,98,88,64,29.53,29.17,6,0,6,0.00
2013-10-11,80.1,56.1,47.8,56.8,49.3,45.5,97,81,45,29.55,29.16,0,0,0,0.00
2013-10-12,71.8,53.5,42.3,57.0,48.3,42.1,99,85,50,29.50,29.11,0,0,0,0.00
2013-10-13,72.0,55.3,46.4,56.1,49.2,43.7,99,82,50,29.53,29.18,0,0,0,0.00
2013-10-14,87.3,63.2,46.2,58.5,42.1,36.0,97,52,21,29.57,29.13,0,0,0,0.00
2013-10-15,89.8,66.4,50.5,45.1,37.0,30.4,58,37,16,29.47,29.16,0,0,0,0.00
2013-10-16,87.6,66.4,52.9,44.4,35.0,25.7,51,34,13,29.52,29.27,4,0,4,0.00
2013-10-17,90.9,66.2,51.4,57.6,36.3,28.0,88,35,12,29.53,28.98,4,1,4,0.00
2013-10-18,90.5,63.4,48.7,54.1,38.8,30.2,97,45,13,29.50,29.26,3,1,3,0.00
2013-10-19,85.8,59.9,48.4,52.2,45.3,38.8,95,63,28,29.52,29.31,4,0,4,0.00
2013-10-20,74.1,54.2,43.0,56.8,47.3,42.4,99,81,40,29.50,29.25,4,0,4,0.00
2013-10-21,76.3,54.1,42.8,56.1,47.8,42.3,99,83,40,29.47,29.28,1,0,1,0.00
2013-10-22,71.6,53.4,41.4,58.1,48.4,41.2,99,86,50,29.49,29.30,2,0,2,0.00
2013-10-23,124.5,52.0,44.1,56.5,48.8,43.5,99,90,64,29.46,29.30,0,0,0,0.00
2013-10-24,65.5,51.9,46.8,55.0,49.0,46.2,99,91,64,29.58,29.39,0,0,0,0.00
2013-10-25,74.5,54.2,42.1,56.3,48.1,41.9,99,83,44,29.63,29.45,0,0,0,0.00
2013-10-26,78.4,56.5,46.4,55.9,48.8,36.0,97,78,38,29.61,29.37,0,0,0,0.00
2013-10-27,68.9,53.2,46.2,56.7,49.4,45.5,99,88,54,29.52,29.22,0,0,0,0.00
2013-10-28,69.6,55.0,50.2,51.3,47.8,44.1,94,78,44,29.50,29.17,0,0,0,0.00
2013-10-29,66.6,52.9,45.9,56.7,49.3,43.0,99,89,56,29.54,29.35,0,0,0,0.00
2013-10-30,73.4,54.0,42.1,56.5,46.0,41.9,99,78,40,29.62,29.08,0,0,0,0.00
2013-10-31,77.7,57.6,45.0,53.8,45.7,42.3,92,68,33,29.64,29.42,0,0,0,0.00
2013-11-1,82.8,61.2,47.5,50.9,42.6,37.9,81,55,22,29.59,29.36,0,0,0,0.00
2013-11-2,74.5,57.2,46.0,50.2,42.1,34.9,84,58,37,29.49,29.23,0,0,0,0.00
2013-11-3,72.1,55.3,45.9,45.0,34.7,23.2,92,52,17,29.49,29.36,0,0,0,0.00
2013-11-4,75.6,55.0,38.5,40.3,32.3,24.3,82,48,17,29.52,29.34,0,0,0,0.00
2013-11-5,75.9,57.8,47.8,46.8,38.9,32.2,79,52,27,29.67,29.49,0,0,0,0.00
2013-11-6,83.1,61.3,46.2,45.9,35.0,26.1,65,41,15,29.70,29.51,1,0,1,0.00
2013-11-7,77.0,59.5,51.6,47.8,39.4,33.1,64,48,29,29.63,29.41,1,0,1,0.00
2013-11-8,80.6,59.6,46.4,52.9,45.7,40.5,83,62,31,29.55,29.30,0,0,0,0.00
2013-11-9,75.4,55.6,47.7,52.2,47.5,32.7,95,76,36,29.51,29.35,0,0,0,0.00
2013-11-10,68.5,54.4,47.8,54.1,49.4,47.1,99,85,54,29.59,29.46,0,0,0,0.00
2013-11-11,73.2,54.9,43.5,54.7,47.8,43.0,99,80,40,29.62,29.49,0,0,0,0.00
2013-11-12,82.4,62.6,52.5,53.4,47.4,42.6,86,61,28,29.72,29.55,0,0,0,0.00
2013-11-13,79.7,59.2,33.3,55.0,48.0,-46.5,97,70,2,29.70,29.48,0,0,0,0.00
2013-11-14,69.3,52.0,45.0,56.1,49.2,43.9,99,91,59,29.59,29.34,0,0,0,0.00
2013-11-15,71.6,52.9,44.4,52.5,45.4,39.2,99,78,42,29.39,29.13,0,0,0,0.00
2013-11-16,68.7,51.5,41.2,49.8,45.2,39.2,98,81,48,29.44,29.26,0,0,0,0.00
2013-11-17,67.5,52.5,45.3,53.2,47.2,43.5,99,84,53,29.58,29.42,0,0,24,0.00
2013-11-18,79.3,50.0,40.6,52.5,45.4,40.1,99,85,61,29.65,29.36,0,0,24,0.00
2013-11-19,80.2,53.3,46.0,54.3,49.9,43.7,97,89,41,29.62,29.14,0,0,0,0.00
2013-11-20,58.1,54.6,48.9,57.6,54.1,48.7,99,98,97,29.46,29.32,7,1,7,0.00
2013-11-21,67.1,53.3,48.2,51.6,42.1,28.4,99,71,38,29.43,29.29,9,1,9,0.00
2013-11-22,72.1,52.3,42.4,38.3,28.3,19.9,70,41,22,29.49,29.32,13,1,13,0.00
2013-11-23,93.2,50.7,41.0,50.7,41.2,32.2,95,71,43,29.60,29.32,3,0,3,0.00
2013-11-24,72.0,51.5,40.8,48.4,41.8,36.9,95,72,33,29.71,29.57,0,0,0,0.00
2013-11-25,73.8,53.8,42.4,48.6,41.5,38.5,88,67,32,29.79,29.63,0,0,0,0.00
2013-11-26,78.1,56.0,45.0,46.2,41.7,36.1,74,61,28,29.71,29.38,0,0,0,0.00
2013-11-27,71.1,54.7,45.7,48.7,43.4,40.1,84,68,37,29.50,29.29,0,0,0,0.00
2013-11-28,71.1,55.3,46.0,50.0,43.1,40.5,83,66,37,29.59,29.35,0,0,0,0.00
2013-11-29,81.5,56.2,45.9,48.4,43.0,35.6,92,67,20,29.72,29.44,0,0,0,0.00
2013-11-30,77.7,54.6,41.4,48.7,41.2,35.8,86,64,23,29.76,29.61,0,0,0,0.00
2013-12-1,81.9,58.1,45.7,50.4,42.2,37.9,83,59,22,29.82,29.60,0,0,0,0.00
2013-12-2,72.0,54.7,44.6,51.3,45.3,38.8,94,72,40,29.70,29.44,0,0,0,0.00
2013-12-3,56.5,48.7,39.7,50.5,41.0,28.9,99,76,45,29.48,29.30,0,0,0,0.00
2013-12-4,57.6,43.1,31.3,32.2,26.6,20.3,75,54,27,29.57,29.41,0,0,0,0.00
2013-12-5,60.1,37.5,26.6,58.1,24.6,16.0,94,62,25,29.68,29.39,0,0,0,0.00
2013-12-6,55.9,41.7,29.8,48.9,33.7,22.8,96,74,48,29.72,29.44,0,0,0,0.00
2013-12-7,55.6,42.9,31.6,49.3,34.8,25.5,98,76,37,29.74,29.40,0,0,0,0.00
2013-12-8,55.9,37.1,28.6,34.2,25.3,17.6,89,65,32,29.78,29.61,0,0,0,0.00
2013-12-9,60.8,40.9,28.6,27.3,19.3,11.1,63,44,21,29.86,29.47,0,0,0,0.00
2013-12-10,64.8,44.3,30.9,30.0,23.6,19.4,65,47,19,29.86,29.32,0,0,0,0.00
2013-12-11,69.6,48.7,36.5,35.1,27.1,20.1,62,46,19,29.67,29.22,1,0,1,0.00
2013-12-12,64.8,47.9,38.8,37.4,29.6,21.4,72,52,20,29.73,29.18,0,0,0,0.00
2013-12-13,62.4,46.6,36.3,44.1,35.3,28.8,92,66,46,29.79,29.34,0,0,0,0.00
2013-12-14,72.1,51.8,37.8,43.9,35.8,29.8,75,57,27,29.83,29.37,0,0,0,0.00
2013-12-15,76.6,56.0,45.9,41.4,33.8,27.7,62,45,19,29.79,29.15,0,0,0,0.00
2013-12-16,83.1,60.7,48.9,39.9,32.3,26.1,54,36,15,29.66,29.20,0,0,0,0.00
2013-12-17,81.0,61.5,53.4,45.0,34.1,28.0,58,37,17,29.60,29.18,0,0,0,0.00
2013-12-18,60.3,51.7,45.9,50.0,43.8,25.3,94,75,55,29.75,29.21,0,0,0,0.00
2013-12-19,63.9,50.3,42.4,45.1,36.7,27.5,93,63,29,29.44,28.91,0,0,1,0.00
2013-12-20,68.5,49.9,38.7,31.8,21.6,12.6,57,35,14,29.49,29.08,0,0,0,0.00
2013-12-21,64.8,49.6,40.6,43.3,36.3,21.4,82,61,42,29.57,29.09,0,0,115,0.00
2013-12-22,65.1,50.5,41.2,50.0,44.2,38.8,99,81,44,29.79,29.15,0,0,0,0.00
2013-12-23,70.9,53.0,43.0,49.3,41.9,38.1,95,69,35,29.86,29.25,0,0,0,0.00
2013-12-24,74.7,56.2,44.1,45.7,37.7,32.0,72,52,28,29.82,29.12,0,0,0,0.00
2013-12-25,81.0,57.5,43.5,44.2,34.8,30.7,62,46,18,29.74,29.07,0,0,0,0.00
2013-12-26,84.4,60.6,48.6,40.3,32.6,25.3,54,38,13,29.72,29.00,0,0,0,0.00
2013-12-27,74.3,57.7,46.8,44.4,32.2,21.9,55,39,20,29.69,29.41,1,0,1,0.00
2013-12-28,75.9,55.8,42.4,37.4,27.9,20.7,55,37,15,29.62,28.92,0,0,0,0.00
2013-12-29,74.8,56.8,46.9,71.1,26.8,17.4,97,33,14,29.64,29.26,1,0,1,0.00
2013-12-30,69.4,53.3,43.3,37.4,28.3,9.9,53,40,18,29.72,29.39,2,0,2,0.00
2013-12-31,69.8,51.3,39.9,42.3,32.3,22.5,68,49,31,29.72,29.12,1,0,2,0.00
2014-1-1,72.0,54.3,42.3,42.8,33.2,25.3,67,46,29,29.66,29.31,3,0,3,0.00
2014-1-2,75.7,58.0,47.1,42.4,35.8,29.5,56,45,25,29.62,29.05,4,0,4,0.00